sensor_id;sensor_type;location;lat;lon;timestamp;pressure;altitude;pressure_sealevel;temperature;humidity
64841;BME280;51307;52.162;7.560;2023-06-04T00:00:52;101673.84;;;15.76;40.38
64841;BME280;51307;52.162;7.560;2023-06-04T00:03:17;101671.13;;;15.85;39.72
64841;BME280;51307;52.162;7.560;2023-06-04T00:05:43;101665.19;;;15.98;39.60
64841;BME280;51307;52.162;7.560;2023-06-04T00:08:08;101668.97;;;15.80;39.89
64841;BME280;51307;52.162;7.560;2023-06-04T00:10:34;101662.56;;;15.73;40.33
64841;BME280;51307;52.162;7.560;2023-06-04T00:13:00;101667.47;;;15.61;40.63
64841;BME280;51307;52.162;7.560;2023-06-04T00:15:26;101664.03;;;15.84;40.03
64841;BME280;51307;52.162;7.560;2023-06-04T00:17:51;101664.13;;;15.59;40.41
64841;BME280;51307;52.162;7.560;2023-06-04T00:20:17;101661.63;;;15.49;40.64
64841;BME280;51307;52.162;7.560;2023-06-04T00:22:43;101653.34;;;15.51;40.93
64841;BME280;51307;52.162;7.560;2023-06-04T00:25:09;101654.00;;;15.53;40.43
64841;BME280;51307;52.162;7.560;2023-06-04T00:27:35;101658.91;;;15.57;40.47
64841;BME280;51307;52.162;7.560;2023-06-04T00:30:01;101656.06;;;15.51;40.93
64841;BME280;51307;52.162;7.560;2023-06-04T00:32:26;101653.53;;;15.49;40.61
64841;BME280;51307;52.162;7.560;2023-06-04T00:34:53;101659.38;;;15.61;40.60
64841;BME280;51307;52.162;7.560;2023-06-04T00:37:19;101657.41;;;15.46;40.85
64841;BME280;51307;52.162;7.560;2023-06-04T00:39:45;101654.38;;;15.41;40.87
64841;BME280;51307;52.162;7.560;2023-06-04T00:42:11;101661.47;;;15.34;40.72
64841;BME280;51307;52.162;7.560;2023-06-04T00:44:36;101662.47;;;15.41;40.82
64841;BME280;51307;52.162;7.560;2023-06-04T00:47:02;101653.22;;;15.27;40.96
64841;BME280;51307;52.162;7.560;2023-06-04T00:49:28;101656.72;;;15.36;40.99
64841;BME280;51307;52.162;7.560;2023-06-04T00:51:54;101656.75;;;15.20;41.42
64841;BME280;51307;52.162;7.560;2023-06-04T00:54:20;101652.19;;;15.20;41.21
64841;BME280;51307;52.162;7.560;2023-06-04T00:56:48;101651.38;;;15.11;41.32
64841;BME280;51307;52.162;7.560;2023-06-04T00:59:13;101651.38;;;15.11;41.37
64841;BME280;51307;52.162;7.560;2023-06-04T01:01:55;101655.72;;;15.37;40.91
64841;BME280;51307;52.162;7.560;2023-06-04T01:04:41;101641.91;;;15.32;41.11
64841;BME280;51307;52.162;7.560;2023-06-04T01:07:10;101645.63;;;15.23;41.31
64841;BME280;51307;52.162;7.560;2023-06-04T01:09:38;101648.50;;;15.13;41.24
64841;BME280;51307;52.162;7.560;2023-06-04T01:12:04;101651.00;;;15.23;41.36
64841;BME280;51307;52.162;7.560;2023-06-04T01:14:30;101650.66;;;15.34;41.03
64841;BME280;51307;52.162;7.560;2023-06-04T01:22:44;101649.84;;;15.09;41.52
64841;BME280;51307;52.162;7.560;2023-06-04T01:25:15;101637.03;;;15.11;41.40
64841;BME280;51307;52.162;7.560;2023-06-04T01:27:52;101642.78;;;15.08;41.56
64841;BME280;51307;52.162;7.560;2023-06-04T01:30:21;101641.09;;;14.90;41.75
64841;BME280;51307;52.162;7.560;2023-06-04T01:32:48;101638.22;;;15.08;41.73
64841;BME280;51307;52.162;7.560;2023-06-04T01:35:14;101638.06;;;14.85;42.18
64841;BME280;51307;52.162;7.560;2023-06-04T01:37:39;101634.16;;;15.04;41.87
64841;BME280;51307;52.162;7.560;2023-06-04T01:40:05;101637.56;;;15.06;41.84
64841;BME280;51307;52.162;7.560;2023-06-04T01:42:33;101642.09;;;14.89;42.10
64841;BME280;51307;52.162;7.560;2023-06-04T01:44:59;101641.78;;;15.01;41.86
64841;BME280;51307;52.162;7.560;2023-06-04T01:47:24;101652.38;;;15.02;41.95
64841;BME280;51307;52.162;7.560;2023-06-04T01:49:50;101645.13;;;14.78;42.44
64841;BME280;51307;52.162;7.560;2023-06-04T01:52:16;101645.31;;;14.76;42.06
64841;BME280;51307;52.162;7.560;2023-06-04T01:54:41;101640.56;;;14.62;42.91
64841;BME280;51307;52.162;7.560;2023-06-04T01:57:08;101644.44;;;14.59;42.67
64841;BME280;51307;52.162;7.560;2023-06-04T01:59:35;101651.00;;;14.57;42.75
64841;BME280;51307;52.162;7.560;2023-06-04T02:02:02;101650.81;;;14.58;42.72
64841;BME280;51307;52.162;7.560;2023-06-04T02:04:28;101646.63;;;14.64;42.56
64841;BME280;51307;52.162;7.560;2023-06-04T02:06:53;101650.50;;;14.61;42.81
64841;BME280;51307;52.162;7.560;2023-06-04T02:09:19;101651.81;;;14.57;42.75
64841;BME280;51307;52.162;7.560;2023-06-04T02:11:44;101646.28;;;14.51;42.86
64841;BME280;51307;52.162;7.560;2023-06-04T02:14:10;101647.47;;;14.56;42.70
64841;BME280;51307;52.162;7.560;2023-06-04T02:16:35;101653.69;;;14.73;42.29
64841;BME280;51307;52.162;7.560;2023-06-04T02:19:01;101649.78;;;14.43;42.91
64841;BME280;51307;52.162;7.560;2023-06-04T02:21:28;101653.81;;;14.31;43.04
64841;BME280;51307;52.162;7.560;2023-06-04T02:23:53;101649.44;;;14.38;43.14
64841;BME280;51307;52.162;7.560;2023-06-04T02:26:19;101638.16;;;14.34;43.21
64841;BME280;51307;52.162;7.560;2023-06-04T02:28:44;101639.56;;;14.04;43.93
64841;BME280;51307;52.162;7.560;2023-06-04T02:31:10;101637.25;;;14.17;43.57
64841;BME280;51307;52.162;7.560;2023-06-04T02:33:35;101638.50;;;14.31;43.42
64841;BME280;51307;52.162;7.560;2023-06-04T02:36:01;101636.81;;;14.38;43.11
64841;BME280;51307;52.162;7.560;2023-06-04T02:38:27;101636.91;;;14.12;43.70
64841;BME280;51307;52.162;7.560;2023-06-04T02:40:52;101641.22;;;14.05;43.80
64841;BME280;51307;52.162;7.560;2023-06-04T02:43:18;101641.69;;;13.92;44.18
64841;BME280;51307;52.162;7.560;2023-06-04T02:45:43;101645.31;;;14.17;43.60
64841;BME280;51307;52.162;7.560;2023-06-04T02:48:09;101652.13;;;13.95;44.31
64841;BME280;51307;52.162;7.560;2023-06-04T02:50:34;101646.88;;;13.85;44.42
64841;BME280;51307;52.162;7.560;2023-06-04T02:53:00;101655.63;;;13.87;44.47
64841;BME280;51307;52.162;7.560;2023-06-04T02:55:25;101654.94;;;13.85;44.28
64841;BME280;51307;52.162;7.560;2023-06-04T02:57:51;101655.34;;;13.64;44.75
64841;BME280;51307;52.162;7.560;2023-06-04T03:00:17;101652.44;;;13.84;44.57
64841;BME280;51307;52.162;7.560;2023-06-04T03:02:45;101661.78;;;13.71;44.81
64841;BME280;51307;52.162;7.560;2023-06-04T03:05:13;101653.66;;;13.63;45.14
64841;BME280;51307;52.162;7.560;2023-06-04T03:07:40;101660.41;;;13.67;44.99
64841;BME280;51307;52.162;7.560;2023-06-04T03:10:09;101659.88;;;13.37;45.55
64841;BME280;51307;52.162;7.560;2023-06-04T03:12:35;101663.31;;;13.48;45.29
64841;BME280;51307;52.162;7.560;2023-06-04T03:15:01;101663.53;;;13.54;45.14
64841;BME280;51307;52.162;7.560;2023-06-04T03:17:27;101658.94;;;13.47;45.34
64841;BME280;51307;52.162;7.560;2023-06-04T03:19:53;101658.94;;;13.47;45.48
64841;BME280;51307;52.162;7.560;2023-06-04T03:22:18;101657.94;;;13.48;45.40
64841;BME280;51307;52.162;7.560;2023-06-04T03:24:44;101653.66;;;13.37;45.72
64841;BME280;51307;52.162;7.560;2023-06-04T03:27:10;101653.84;;;13.35;45.73
64841;BME280;51307;52.162;7.560;2023-06-04T03:29:37;101650.91;;;13.10;46.19
64841;BME280;51307;52.162;7.560;2023-06-04T03:32:03;101656.06;;;13.04;46.56
64841;BME280;51307;52.162;7.560;2023-06-04T03:34:28;101651.06;;;13.09;46.40
64841;BME280;51307;52.162;7.560;2023-06-04T03:36:57;101658.22;;;12.82;47.22
64841;BME280;51307;52.162;7.560;2023-06-04T03:39:23;101662.75;;;13.00;46.69
64841;BME280;51307;52.162;7.560;2023-06-04T03:41:49;101661.16;;;12.89;47.22
64841;BME280;51307;52.162;7.560;2023-06-04T03:44:16;101657.16;;;12.93;46.85
64841;BME280;51307;52.162;7.560;2023-06-04T03:46:42;101657.75;;;13.05;46.76
64841;BME280;51307;52.162;7.560;2023-06-04T03:49:09;101664.47;;;12.83;47.29
64841;BME280;51307;52.162;7.560;2023-06-04T03:51:36;101649.41;;;12.90;47.20
64841;BME280;51307;52.162;7.560;2023-06-04T03:54:01;101657.25;;;13.01;47.00
64841;BME280;51307;52.162;7.560;2023-06-04T03:56:27;101653.47;;;12.94;47.20
64841;BME280;51307;52.162;7.560;2023-06-04T03:58:53;101656.16;;;12.94;47.01
64841;BME280;51307;52.162;7.560;2023-06-04T04:01:19;101660.47;;;12.69;47.78
64841;BME280;51307;52.162;7.560;2023-06-04T04:03:45;101671.59;;;12.92;47.31
64841;BME280;51307;52.162;7.560;2023-06-04T04:06:13;101661.25;;;12.61;47.76
64841;BME280;51307;52.162;7.560;2023-06-04T04:08:42;101666.28;;;12.46;48.46
64841;BME280;51307;52.162;7.560;2023-06-04T04:11:13;101661.22;;;12.43;48.85
64841;BME280;51307;52.162;7.560;2023-06-04T04:13:38;101655.25;;;12.49;48.72
64841;BME280;51307;52.162;7.560;2023-06-04T04:16:04;101652.41;;;12.51;48.76
64841;BME280;51307;52.162;7.560;2023-06-04T04:18:34;101647.28;;;12.39;48.92
64841;BME280;51307;52.162;7.560;2023-06-04T04:21:00;101648.56;;;12.53;48.71
64841;BME280;51307;52.162;7.560;2023-06-04T04:23:26;101645.59;;;12.74;48.41
64841;BME280;51307;52.162;7.560;2023-06-04T04:25:52;101647.66;;;12.81;48.33
64841;BME280;51307;52.162;7.560;2023-06-04T04:28:19;101658.78;;;12.86;47.89
64841;BME280;51307;52.162;7.560;2023-06-04T04:30:46;101657.25;;;13.01;47.73
64841;BME280;51307;52.162;7.560;2023-06-04T04:33:12;101653.38;;;13.04;47.50
64841;BME280;51307;52.162;7.560;2023-06-04T04:35:41;101652.59;;;13.11;47.56
64841;BME280;51307;52.162;7.560;2023-06-04T04:38:07;101660.31;;;13.51;46.69
64841;BME280;51307;52.162;7.560;2023-06-04T04:40:33;101658.47;;;13.07;47.40
64841;BME280;51307;52.162;7.560;2023-06-04T04:42:59;101659.81;;;13.29;47.05
64841;BME280;51307;52.162;7.560;2023-06-04T04:45:24;101660.38;;;13.33;47.09
64841;BME280;51307;52.162;7.560;2023-06-04T04:47:50;101664.38;;;13.28;47.12
64841;BME280;51307;52.162;7.560;2023-06-04T04:50:18;101663.38;;;13.30;47.43
64841;BME280;51307;52.162;7.560;2023-06-04T04:52:44;101668.88;;;13.28;47.42
64841;BME280;51307;52.162;7.560;2023-06-04T04:55:10;101664.31;;;13.20;47.79
64841;BME280;51307;52.162;7.560;2023-06-04T04:57:37;101671.44;;;13.30;47.34
64841;BME280;51307;52.162;7.560;2023-06-04T05:00:03;101660.47;;;13.49;47.26
64841;BME280;51307;52.162;7.560;2023-06-04T05:02:31;101663.69;;;13.53;47.12
64841;BME280;51307;52.162;7.560;2023-06-04T05:04:56;101659.69;;;13.57;46.68
64841;BME280;51307;52.162;7.560;2023-06-04T05:07:22;101662.63;;;13.72;46.38
64841;BME280;51307;52.162;7.560;2023-06-04T05:09:48;101666.84;;;13.74;46.41
64841;BME280;51307;52.162;7.560;2023-06-04T05:12:14;101666.16;;;13.81;46.58
64841;BME280;51307;52.162;7.560;2023-06-04T05:14:39;101664.47;;;13.71;46.90
64841;BME280;51307;52.162;7.560;2023-06-04T05:17:07;101668.00;;;13.72;47.06
64841;BME280;51307;52.162;7.560;2023-06-04T05:19:34;101677.00;;;13.62;47.45
64841;BME280;51307;52.162;7.560;2023-06-04T05:22:00;101676.88;;;13.99;46.66
64841;BME280;51307;52.162;7.560;2023-06-04T05:24:28;101674.31;;;13.89;47.06
64841;BME280;51307;52.162;7.560;2023-06-04T05:26:55;101668.81;;;14.07;46.69
64841;BME280;51307;52.162;7.560;2023-06-04T05:29:22;101672.81;;;13.94;47.18
64841;BME280;51307;52.162;7.560;2023-06-04T05:31:47;101666.69;;;14.19;46.49
64841;BME280;51307;52.162;7.560;2023-06-04T05:34:13;101664.00;;;14.19;46.93
64841;BME280;51307;52.162;7.560;2023-06-04T05:36:42;101665.72;;;14.28;46.50
64841;BME280;51307;52.162;7.560;2023-06-04T05:39:09;101670.97;;;14.38;45.74
64841;BME280;51307;52.162;7.560;2023-06-04T05:41:35;101671.38;;;14.59;44.89
64841;BME280;51307;52.162;7.560;2023-06-04T05:44:01;101660.59;;;14.76;44.81
64841;BME280;51307;52.162;7.560;2023-06-04T05:46:27;101662.13;;;14.62;45.82
64841;BME280;51307;52.162;7.560;2023-06-04T05:48:53;101660.13;;;14.72;44.58
64841;BME280;51307;52.162;7.560;2023-06-04T05:51:19;101659.59;;;15.02;44.32
64841;BME280;51307;52.162;7.560;2023-06-04T05:53:45;101668.03;;;14.90;44.29
64841;BME280;51307;52.162;7.560;2023-06-04T05:56:11;101667.03;;;14.83;44.97
64841;BME280;51307;52.162;7.560;2023-06-04T05:58:37;101662.97;;;15.04;44.32
64841;BME280;51307;52.162;7.560;2023-06-04T06:01:03;101665.84;;;15.19;44.08
64841;BME280;51307;52.162;7.560;2023-06-04T06:03:29;101671.72;;;15.30;43.38
64841;BME280;51307;52.162;7.560;2023-06-04T06:05:54;101665.84;;;15.19;43.18
64841;BME280;51307;52.162;7.560;2023-06-04T06:08:21;101668.16;;;15.30;42.78
64841;BME280;51307;52.162;7.560;2023-06-04T06:10:46;101669.53;;;15.18;43.04
64841;BME280;51307;52.162;7.560;2023-06-04T06:13:12;101675.59;;;15.44;42.45
64841;BME280;51307;52.162;7.560;2023-06-04T06:15:37;101670.38;;;15.51;42.56
64841;BME280;51307;52.162;7.560;2023-06-04T06:18:04;101668.00;;;15.56;41.87
64841;BME280;51307;52.162;7.560;2023-06-04T06:20:30;101672.88;;;15.61;41.30
64841;BME280;51307;52.162;7.560;2023-06-04T06:22:55;101674.91;;;15.59;40.25
64841;BME280;51307;52.162;7.560;2023-06-04T06:25:21;101677.28;;;15.54;40.40
64841;BME280;51307;52.162;7.560;2023-06-04T06:27:46;101674.06;;;15.50;40.26
64841;BME280;51307;52.162;7.560;2023-06-04T06:30:13;101678.94;;;15.71;40.23
64841;BME280;51307;52.162;7.560;2023-06-04T06:32:39;101673.50;;;15.79;40.19
64841;BME280;51307;52.162;7.560;2023-06-04T06:35:05;101678.72;;;15.81;40.54
64841;BME280;51307;52.162;7.560;2023-06-04T06:37:33;101682.91;;;15.92;40.69
64841;BME280;51307;52.162;7.560;2023-06-04T06:39:58;101681.03;;;16.01;39.84
64841;BME280;51307;52.162;7.560;2023-06-04T06:42:24;101681.66;;;16.11;39.61
64841;BME280;51307;52.162;7.560;2023-06-04T06:44:49;101683.31;;;16.12;39.53
64841;BME280;51307;52.162;7.560;2023-06-04T06:47:16;101683.16;;;16.13;39.35
64841;BME280;51307;52.162;7.560;2023-06-04T06:49:42;101685.84;;;16.13;39.73
64841;BME280;51307;52.162;7.560;2023-06-04T06:52:08;101679.09;;;16.18;38.79
64841;BME280;51307;52.162;7.560;2023-06-04T06:54:34;101687.34;;;16.24;38.73
64841;BME280;51307;52.162;7.560;2023-06-04T06:57:00;101693.03;;;16.29;38.62
64841;BME280;51307;52.162;7.560;2023-06-04T06:59:26;101692.56;;;16.26;38.63
64841;BME280;51307;52.162;7.560;2023-06-04T07:01:52;101698.28;;;16.31;38.63
64841;BME280;51307;52.162;7.560;2023-06-04T07:04:18;101696.47;;;16.55;38.87
64841;BME280;51307;52.162;7.560;2023-06-04T07:06:43;101704.75;;;16.53;39.23
64841;BME280;51307;52.162;7.560;2023-06-04T07:09:09;101700.50;;;16.59;38.55
64841;BME280;51307;52.162;7.560;2023-06-04T07:11:35;101704.47;;;16.40;38.40
64841;BME280;51307;52.162;7.560;2023-06-04T07:14:01;101702.13;;;16.68;37.48
64841;BME280;51307;52.162;7.560;2023-06-04T07:16:30;101708.69;;;16.74;38.15
64841;BME280;51307;52.162;7.560;2023-06-04T07:18:55;101712.72;;;16.78;38.23
64841;BME280;51307;52.162;7.560;2023-06-04T07:21:21;101705.41;;;16.87;38.58
64841;BME280;51307;52.162;7.560;2023-06-04T07:23:49;101704.53;;;16.86;37.59
64841;BME280;51307;52.162;7.560;2023-06-04T07:26:16;101707.78;;;16.82;38.59
64841;BME280;51307;52.162;7.560;2023-06-04T07:28:43;101702.44;;;16.96;37.77
64841;BME280;51307;52.162;7.560;2023-06-04T07:31:08;101705.34;;;16.95;37.03
64841;BME280;51307;52.162;7.560;2023-06-04T07:33:34;101705.16;;;16.96;36.80
64841;BME280;51307;52.162;7.560;2023-06-04T07:36:00;101703.50;;;17.10;37.29
64841;BME280;51307;52.162;7.560;2023-06-04T07:38:26;101709.03;;;17.17;36.27
64841;BME280;51307;52.162;7.560;2023-06-04T07:40:52;101708.19;;;17.17;37.12
64841;BME280;51307;52.162;7.560;2023-06-04T07:43:17;101711.03;;;17.23;37.15
64841;BME280;51307;52.162;7.560;2023-06-04T07:45:43;101707.50;;;17.23;36.50
64841;BME280;51307;52.162;7.560;2023-06-04T07:48:09;101711.44;;;17.35;37.22
64841;BME280;51307;52.162;7.560;2023-06-04T07:50:36;101708.91;;;17.34;36.28
64841;BME280;51307;52.162;7.560;2023-06-04T07:53:01;101701.25;;;17.37;35.69
64841;BME280;51307;52.162;7.560;2023-06-04T07:55:27;101709.75;;;17.34;36.17
64841;BME280;51307;52.162;7.560;2023-06-04T07:57:52;101708.69;;;17.43;36.01
64841;BME280;51307;52.162;7.560;2023-06-04T08:00:18;101707.47;;;17.46;36.03
64841;BME280;51307;52.162;7.560;2023-06-04T08:02:43;101704.75;;;17.46;36.01
64841;BME280;51307;52.162;7.560;2023-06-04T08:05:09;101706.19;;;17.57;35.90
64841;BME280;51307;52.162;7.560;2023-06-04T08:07:35;101715.72;;;17.68;35.39
64841;BME280;51307;52.162;7.560;2023-06-04T08:10:00;101710.88;;;17.78;36.62
64841;BME280;51307;52.162;7.560;2023-06-04T08:12:26;101711.31;;;17.81;36.30
64841;BME280;51307;52.162;7.560;2023-06-04T08:14:51;101714.78;;;17.60;34.83
64841;BME280;51307;52.162;7.560;2023-06-04T08:17:17;101707.13;;;17.79;34.05
64841;BME280;51307;52.162;7.560;2023-06-04T08:19:42;101713.28;;;17.88;33.44
64841;BME280;51307;52.162;7.560;2023-06-04T08:22:08;101714.41;;;17.93;34.44
64841;BME280;51307;52.162;7.560;2023-06-04T08:24:36;101715.41;;;18.07;33.92
64841;BME280;51307;52.162;7.560;2023-06-04T08:27:02;101712.63;;;18.16;32.68
64841;BME280;51307;52.162;7.560;2023-06-04T08:29:27;101719.78;;;18.23;31.53
64841;BME280;51307;52.162;7.560;2023-06-04T08:31:53;101725.31;;;18.30;33.28
64841;BME280;51307;52.162;7.560;2023-06-04T08:34:18;101718.97;;;18.23;31.84
64841;BME280;51307;52.162;7.560;2023-06-04T08:36:44;101719.56;;;18.33;30.49
64841;BME280;51307;52.162;7.560;2023-06-04T08:39:09;101722.97;;;18.27;30.61
64841;BME280;51307;52.162;7.560;2023-06-04T08:44:16;101724.19;;;18.39;29.74
64841;BME280;51307;52.162;7.560;2023-06-04T08:46:44;101725.88;;;18.40;28.71
64841;BME280;51307;52.162;7.560;2023-06-04T08:49:12;101731.78;;;18.44;28.18
64841;BME280;51307;52.162;7.560;2023-06-04T08:51:38;101734.28;;;18.45;28.37
64841;BME280;51307;52.162;7.560;2023-06-04T08:54:05;101731.56;;;18.45;28.56
64841;BME280;51307;52.162;7.560;2023-06-04T08:56:31;101727.25;;;18.51;28.52
64841;BME280;51307;52.162;7.560;2023-06-04T08:59:03;101721.53;;;18.61;28.96
64841;BME280;51307;52.162;7.560;2023-06-04T09:01:32;101723.59;;;18.59;28.80
64841;BME280;51307;52.162;7.560;2023-06-04T09:04:04;101719.34;;;18.71;29.63
64841;BME280;51307;52.162;7.560;2023-06-04T09:06:32;101711.09;;;18.79;30.25
64841;BME280;51307;52.162;7.560;2023-06-04T09:09:00;101721.28;;;18.77;29.03
64841;BME280;51307;52.162;7.560;2023-06-04T09:11:34;101716.31;;;18.81;28.71
64841;BME280;51307;52.162;7.560;2023-06-04T09:14:04;101725.75;;;18.85;29.54
64841;BME280;51307;52.162;7.560;2023-06-04T09:16:31;101726.47;;;18.94;29.44
64841;BME280;51307;52.162;7.560;2023-06-04T09:19:03;101727.50;;;18.93;27.71
64841;BME280;51307;52.162;7.560;2023-06-04T09:21:29;101727.31;;;18.94;27.00
64841;BME280;51307;52.162;7.560;2023-06-04T09:23:57;101720.38;;;18.92;26.03
64841;BME280;51307;52.162;7.560;2023-06-04T09:26:23;101725.94;;;19.05;26.49
64841;BME280;51307;52.162;7.560;2023-06-04T09:28:50;101735.16;;;19.11;28.09
64841;BME280;51307;52.162;7.560;2023-06-04T09:31:18;101732.91;;;19.14;26.75
64841;BME280;51307;52.162;7.560;2023-06-04T09:33:49;101736.66;;;19.13;26.38
64841;BME280;51307;52.162;7.560;2023-06-04T09:36:15;101728.16;;;19.17;26.99
64841;BME280;51307;52.162;7.560;2023-06-04T09:38:42;101722.16;;;19.21;25.93
64841;BME280;51307;52.162;7.560;2023-06-04T09:41:17;101719.25;;;19.23;27.71
64841;BME280;51307;52.162;7.560;2023-06-04T09:43:45;101728.66;;;19.27;27.95
64841;BME280;51307;52.162;7.560;2023-06-04T09:46:12;101724.22;;;19.41;28.15
64841;BME280;51307;52.162;7.560;2023-06-04T09:48:39;101716.78;;;19.28;26.93
64841;BME280;51307;52.162;7.560;2023-06-04T09:51:13;101727.91;;;19.33;26.26
64841;BME280;51307;52.162;7.560;2023-06-04T09:53:41;101734.34;;;19.32;26.32
64841;BME280;51307;52.162;7.560;2023-06-04T09:56:07;101729.44;;;19.42;26.24
64841;BME280;51307;52.162;7.560;2023-06-04T09:58:34;101727.97;;;19.40;28.04
64841;BME280;51307;52.162;7.560;2023-06-04T10:01:03;101733.47;;;19.25;27.98
64841;BME280;51307;52.162;7.560;2023-06-04T10:03:36;101731.09;;;19.43;27.43
64841;BME280;51307;52.162;7.560;2023-06-04T10:06:04;101732.41;;;19.47;28.49
64841;BME280;51307;52.162;7.560;2023-06-04T10:08:31;101723.16;;;19.42;28.05
64841;BME280;51307;52.162;7.560;2023-06-04T10:11:00;101722.44;;;19.55;29.00
64841;BME280;51307;52.162;7.560;2023-06-04T10:13:28;101718.47;;;19.57;28.89
64841;BME280;51307;52.162;7.560;2023-06-04T10:15:57;101715.78;;;19.57;27.88
64841;BME280;51307;52.162;7.560;2023-06-04T10:18:24;101717.25;;;19.60;27.65
64841;BME280;51307;52.162;7.560;2023-06-04T10:20:55;101719.16;;;19.66;27.94
64841;BME280;51307;52.162;7.560;2023-06-04T10:23:22;101713.31;;;19.62;27.97
64841;BME280;51307;52.162;7.560;2023-06-04T10:25:52;101713.09;;;19.64;28.09
64841;BME280;51307;52.162;7.560;2023-06-04T10:28:20;101714.97;;;19.63;27.67
64841;BME280;51307;52.162;7.560;2023-06-04T10:30:47;101721.25;;;19.64;28.58
64841;BME280;51307;52.162;7.560;2023-06-04T10:33:17;101714.88;;;19.78;28.90
64841;BME280;51307;52.162;7.560;2023-06-04T10:35:43;101710.31;;;19.86;29.72
64841;BME280;51307;52.162;7.560;2023-06-04T10:38:10;101709.28;;;19.87;28.82
64841;BME280;51307;52.162;7.560;2023-06-04T10:40:37;101713.50;;;19.96;28.32
64841;BME280;51307;52.162;7.560;2023-06-04T10:43:08;101706.81;;;19.98;28.06
64841;BME280;51307;52.162;7.560;2023-06-04T10:45:35;101712.34;;;20.12;28.58
64841;BME280;51307;52.162;7.560;2023-06-04T10:48:02;101710.69;;;20.11;26.98
64841;BME280;51307;52.162;7.560;2023-06-04T10:50:28;101711.00;;;20.01;26.84
64841;BME280;51307;52.162;7.560;2023-06-04T10:52:55;101708.78;;;20.11;27.85
64841;BME280;51307;52.162;7.560;2023-06-04T10:55:23;101711.69;;;20.03;27.71
64841;BME280;51307;52.162;7.560;2023-06-04T11:00:33;101712.78;;;20.15;28.29
64841;BME280;51307;52.162;7.560;2023-06-04T11:02:59;101709.88;;;20.24;28.72
64841;BME280;51307;52.162;7.560;2023-06-04T11:05:44;101704.69;;;20.29;27.79
64841;BME280;51307;52.162;7.560;2023-06-04T11:08:12;101707.88;;;20.39;28.25
64841;BME280;51307;52.162;7.560;2023-06-04T11:10:44;101714.56;;;20.43;28.07
64841;BME280;51307;52.162;7.560;2023-06-04T11:13:10;101708.09;;;20.44;27.75
64841;BME280;51307;52.162;7.560;2023-06-04T11:15:41;101710.19;;;20.42;27.43
64841;BME280;51307;52.162;7.560;2023-06-04T11:18:07;101706.66;;;20.48;27.85
64841;BME280;51307;52.162;7.560;2023-06-04T11:20:33;101708.09;;;20.51;27.97
64841;BME280;51307;52.162;7.560;2023-06-04T11:22:59;101705.38;;;20.44;26.19
64841;BME280;51307;52.162;7.560;2023-06-04T11:25:26;101709.56;;;20.47;26.56
64841;BME280;51307;52.162;7.560;2023-06-04T11:27:54;101689.59;;;20.20;25.48
64841;BME280;51307;52.162;7.560;2023-06-04T11:30:21;101698.25;;;20.37;26.01
64841;BME280;51307;52.162;7.560;2023-06-04T11:32:47;101696.16;;;20.45;27.91
64841;BME280;51307;52.162;7.560;2023-06-04T11:35:12;101692.63;;;20.45;27.72
64841;BME280;51307;52.162;7.560;2023-06-04T11:37:39;101688.50;;;20.62;28.71
64841;BME280;51307;52.162;7.560;2023-06-04T11:40:18;101692.03;;;20.63;27.24
64841;BME280;51307;52.162;7.560;2023-06-04T11:42:46;101689.13;;;20.71;27.69
64841;BME280;51307;52.162;7.560;2023-06-04T11:45:17;101690.81;;;20.72;27.27
64841;BME280;51307;52.162;7.560;2023-06-04T11:47:55;101693.31;;;20.74;26.76
64841;BME280;51307;52.162;7.560;2023-06-04T11:50:21;101691.84;;;20.78;28.37
64841;BME280;51307;52.162;7.560;2023-06-04T11:52:48;101689.56;;;20.81;27.26
64841;BME280;51307;52.162;7.560;2023-06-04T11:55:15;101689.34;;;20.76;26.61
64841;BME280;51307;52.162;7.560;2023-06-04T11:57:43;101683.91;;;20.76;27.34
64841;BME280;51307;52.162;7.560;2023-06-04T12:00:10;101686.28;;;20.86;26.90
64841;BME280;51307;52.162;7.560;2023-06-04T12:02:52;101683.09;;;20.82;26.43
64841;BME280;51307;52.162;7.560;2023-06-04T12:05:20;101684.16;;;20.88;27.74
64841;BME280;51307;52.162;7.560;2023-06-04T12:07:48;101688.53;;;20.82;26.56
64841;BME280;51307;52.162;7.560;2023-06-04T12:10:17;101682.69;;;20.86;27.41
64841;BME280;51307;52.162;7.560;2023-06-04T12:12:42;101682.69;;;20.92;26.64
64841;BME280;51307;52.162;7.560;2023-06-04T12:15:09;101678.31;;;20.98;28.13
64841;BME280;51307;52.162;7.560;2023-06-04T12:17:36;101673.06;;;21.03;27.45
64841;BME280;51307;52.162;7.560;2023-06-04T12:20:03;101676.44;;;21.05;27.71
64841;BME280;51307;52.162;7.560;2023-06-04T12:22:30;101679.56;;;21.02;28.28
64841;BME280;51307;52.162;7.560;2023-06-04T12:24:57;101669.53;;;21.03;27.32
64841;BME280;51307;52.162;7.560;2023-06-04T12:27:25;101664.09;;;21.09;27.03
64841;BME280;51307;52.162;7.560;2023-06-04T12:29:58;101664.91;;;21.17;27.25
64841;BME280;51307;52.162;7.560;2023-06-04T12:32:24;101659.91;;;21.13;27.31
64841;BME280;51307;52.162;7.560;2023-06-04T12:34:50;101657.41;;;21.19;28.79
64841;BME280;51307;52.162;7.560;2023-06-04T12:37:15;101656.97;;;21.22;27.74
64841;BME280;51307;52.162;7.560;2023-06-04T12:39:41;101664.47;;;21.33;28.08
64841;BME280;51307;52.162;7.560;2023-06-04T12:42:07;101662.81;;;21.39;28.73
64841;BME280;51307;52.162;7.560;2023-06-04T12:44:36;101663.22;;;21.42;27.65
64841;BME280;51307;52.162;7.560;2023-06-04T12:47:02;101651.47;;;21.48;27.77
64841;BME280;51307;52.162;7.560;2023-06-04T12:49:28;101658.63;;;21.49;27.48
64841;BME280;51307;52.162;7.560;2023-06-04T12:51:53;101655.47;;;21.53;28.08
64841;BME280;51307;52.162;7.560;2023-06-04T12:54:19;101650.00;;;21.59;28.22
64841;BME280;51307;52.162;7.560;2023-06-04T12:56:45;101661.50;;;21.68;28.25
64841;BME280;51307;52.162;7.560;2023-06-04T12:59:11;101663.19;;;21.69;27.74